Terminal Aerodrome Forecast
Issued by NWS Nashville, TN

Home | Current Version | Previous Version | Text Only | Print | Product List | Glossary On
Versions: 1 2 3 4 5 6 7 8 9 10 11 12 13 14 15 16
159
FTUS44 KOHX 311137
TAFBNA
TAF
KBNA 311137Z 3112/0112 34005KT P6SM SKC
     FM311600 35011KT P6SM SCT040
     FM010100 36006KT P6SM BKN150
     FM010900 36007KT 4SM BR OVC015=

USA.gov is the U.S. government's official web portal to all federal, state and local government web resources and services.